Aérodrome :
LOGIN :

S'inscrire | Disclaimer

   EN    FR    IT 

 










Légende :    VFR   VFR Marginal   IFR   IFR Intensif   IFR Très Intensif
Visi : 
Plafond : 
>= 8 km
>= 3000ft
5 à 8 km
1000 à 3000 ft
1500m à 5 km
500 à 1000 ft
800 à 1500m
200 à 500 ft
< 800m
< 200 ft
Symboles :   Orages  Brouillard  Fortes neiges  Fortes précipitations  Vent > 20 kt
SIGMETs :   Divers  Orages  Givrage  Turbulence  Onde Orograph.  Cendres Volcan.






- Altitude de l'aérodrome : 218 ft


EGYD - RAF Cranwell

DERNIER METAR :
  • 010959Z 07006KT 0600 FG OVC000 02/02 Q1034 BECMG 3000 BR BKN003 RMK RED BECMG YLO2

METARs EXPIRÉS :
  • 010950Z 09007KT 1000 BR OVC001 02/02 Q1034 BECMG 3000 BKN003 RMK RED BECMG YLO2
  • 010920Z 08007KT 0400 -DZ OVC000 02/02 Q1034 NOSIG RMK RED RED
  • 010850Z 08007KT 0300 -DZ OVC000 02/02 Q1034 NOSIG RMK RED RED
  • 010820Z 06007KT 0300 FG OVC000 02/02 Q1034 NOSIG RMK RED RED
  • 010750Z 08009KT 0300 FG OVC000 02/02 Q1034 NOSIG RMK RED RED
  • 010650Z 06006KT 0200 FG OVC000 02/02 Q1034 NOSIG RMK RED RED

TAF TAF EGYD
Valide du 01 à 09h jusqu'au 01 à 18h UTC


010737Z 0109/0118 08006KT 0200 FG OVC000
BECMG 0110/0113 6000 BR BKN005
PROB40 0113/0117 9999 NSW BKN007
BECMG 0117/0118 3000 BKN002



MET'MAP, la Météo Aéronautique d'un coup d'oeil ! - Copyright ORBIFLY Décembre 2007 - Disclaimer

ORBIFLY MET'MAP TEAM :

Programmation & Développement : Alexandra Zaïnal
Sur une idée originale de : Baudouin d'Aumeries
Assistance à la programmation : Marc-Olivier Méhu
Soutien technique & logistique : Manuel Goepfert

Contact : metmap@orbifly.com




SOURCES & CREDITS :

   NOAA